Sagunto, Spain
Current Conditions -  °F | °C
As of 5:00 PM on Saturday 22 Nov 2014 (Local Time) from LEBT Reporting Station
Few Clouds Few Clouds  
Wind Chill: 64°   Ceiling: Unl
Heat Index: 64°   Visibility: 6mi
Dew Point: 57°   Wind: 2mph
Humidity: 77%   Direction: NA
Pressure: 30"   Gusts: NA
Location:  39.68°N, 0.27°W
Report Text: LEBT 221600Z AUTO VRB02KT 9999 // FEW028/// 18/14 Q1016
Loading
Personal Weather Stations






























Interactive Weather Map New forecast layout! Learn more

10-Day Weather Forecast

Advertisements
Track Severe Weather on mobile